Cincinnati Municipal Airport Lunken Field
KLUK : now visible

Airfield :











YOU CAN JOIN US ON...

 
LOGIN :

Register | Disclaimer

   EN    FR    IT 

 









Legend :    VFR   Marginal VFR   IFR   Intensive IFR   Very Intensive IFR
Visi :
Ceiling :
>= 8 km
>= 3000ft
5 to 8 km
1000 to 3000 ft
1500m to 5 km
500 to 1000 ft
800 to 1500m
200 to 500 ft
< 800m
< 200 ft
Symbols :   Thunderstorms  Fog  Heavy snow  Heavy precipitations  Wind > 20 kt






- Airport Elevation : 483 ft
- IATA code : LUK


KLUK - Cincinnati Municipal Lunken Field

CURRENT METAR :
  • 241053Z 36010KT 10SM OVC026 09/04 A3020 RMK AO2 SLP225 T00890039

EXPIRED METARs :
  • 241038Z 36012KT 10SM BKN027 OVC049 09/03 A3019 RMK AO2 T00890033
  • 241007Z AUTO 01007KT 10SM FEW027 OVC049 09/03 A3019 RMK AO2 T00890033
  • 240953Z AUTO 36010G18KT 10SM BKN025 OVC049 09/03 A3018 RMK AO2 SLP219 T00890033
  • 240853Z AUTO 35012KT 10SM BKN023 OVC029 09/05 A3017 RMK AO2 SLP214 T00940050 51014

TAF KLUK
Valid from the 24 at 12:00 until the 25 at 12:00 UTC


241122Z 2412/2512 35009KT P6SM SCT028 SCT050
FM241400 02007KT P6SM SCT028
TEMPO 2415/2418 BKN028
FM250000 03006KT P6SM BKN090
FM250400 03007KT P6SM BKN040 OVC090
FM250800 03008KT P6SM BKN028 OVC080
KZID FIR / North America



MET'MAP, your aeronautical weather chart ! - Copyright ORBIFLY December 2007 - Disclaimer

ORBIFLY MET'MAP TEAM :

Programming & Development : Alexandra Zaïnal
Concept & original design : Baudouin d'Aumeries
Assistance for programming : Marc-Olivier Méhu
Technical & hardware support : Manuel Goepfert

Contact : metmap@orbifly.com




SOURCES & CREDITS :

   NOAA       Earth
Advisory